Monday, September 01, 2014
21:10 UTC
  |  Log In   |  Register Free
Airport Search:

Dawson Municipal Airport
(16J)

Dawson Municipal Airport Diagram
No Airport Diagram Available

FAA data valid effective July 24, 2014 until September 18, 2014 (unless otherwise noted).

 
 
 
 
 
 
 
 
 
 
 
 
 
 

Current Aviation Weather for Dawson Municipal Airport (16J)

The most recent METAR observation for KABY was updated at: 1953 UTC
METAR Summary (Translated METAR)
KABY
011953Z 18009KT 10SM BKN055 36/21 A3006 RMK AO2 SLP176 T03560206 PNO $
KMGR
(33.7 nm SE from KABY)
012015Z AUTO 22004KT 10SM CLR 35/19 A3006 RMK AO2 LTG DSNT NE AND W
TAF Summary (Translated TAF)
KABY
011740Z 0118/0218 18005KT P6SM FEW050 FM020300 00000KT P6SM SKC FM021500 33005KT P6SM FEW040
  Airport Weather Conditions for 16J

Current weather conditions are
not available for 16J


The nearest NOAA weather station
is at ABY, (17 nm SE from 16J)
  
 Current Weather at ABY
92° F
Partly Cloudy
North winds at 0.0 mph
ABY NOAA Radar

Pressure: 30.09 in
Humidity: 51%
Wind: Calm
Dew Point: 71.1°F
Visibility: 10.00 mi


Airport Weather Forecast for 16J

Translated METAR and TAF for KABY
Translated METAR for KABY (2104 UTC 01 September 2014)
found at http://aviationweather.gov/adds/metars/
 
METAR text: KABY 012053Z 26005KT 10SM SCT060 35/20 A3004 RMK AO2 SLP170 6//// T03500200 57022 PNO $
Conditions at: KABY (ALBANY , GA, US) observed 2053 UTC 01 September 2014
Temperature: 35.0°C (95°F)
Dewpoint: 20.0°C (68°F) [RH = 42%]
Pressure (altimeter): 30.04 inches Hg (1017.4 mb)
[Sea-level pressure: 1017.0 mb]
Winds: from the W (260 degrees) at 6 MPH (5 knots; 2.6 m/s)
Visibility: 10 or more miles (16+ km)
Ceiling: at least 12,000 feet AGL
Clouds: scattered clouds at 6000 feet AGL
Weather:
SOME DATA ABOVE MAY BE INACCURATE!!!
"$" is an indication the sensor requires maintenance
Translated TAF for KABY
Forecast for: KABY (ALBANY , GA, US)
TAF Text: KABY 011740Z 0118/0218 18005KT P6SM FEW050
Forecast period: 1800 UTC 01 September 2014 to 0300 UTC 02 September 2014
Forecast type: FROM: standard forecast or significant change
Winds: from the S (180 degrees) at 6 MPH (5 knots; 2.6 m/s)
Visibility: 6 or more miles (10+ km)
Clouds: few clouds at 5000 feet AGL
Weather: no significant weather forecast for this period
TAF Text: FM020300 00000KT P6SM SKC
Forecast period: 0300 to 1500 UTC 02 September 2014
Forecast type: FROM: standard forecast or significant change
Winds: calm
Visibility: 6 or more miles (10+ km)
Clouds: clear skies
Weather: no significant weather forecast for this period
TAF Text: FM021500 33005KT P6SM FEW040
Forecast period: 1500 to 1800 UTC 02 September 2014
Forecast type: FROM: standard forecast or significant change
Winds: from the NNW (330 degrees) at 6 MPH (5 knots; 2.6 m/s)
Visibility: 6 or more miles (10+ km)
Clouds: few clouds at 4000 feet AGL
Weather: no significant weather forecast for this period

Find All Airport Services Find A Hotel Find A Rental Car Find A Golf Course Find A Restaurant $100 Hamburger



FBO's on the Field
FBO Company Facility Photos Services Transportation Aviation Fuel Prices: Prices include tax
Catering Weather Repair Courtesy Rental Type 100LL JetA JetA+ MOGAS 8087
 
Dawson/Terrell Co. Airport

This FBO has not yet been rated
FS:Independent
Last Updated: Jul-23
Login to update fuel prices
SS:
Contact Dawson/Terrell Co. AirportMore FBO Information
 
Add another FBO Facility Photos Catering Weather Repair Courtesy Rental Type 100LL JetA JetA+ MOGAS 8087
Services Transportation Aviation Fuel Prices: Prices include tax


GlobalAir.com Airport Resource Center model-print
model-print
model-print
model-print